Time;durP1;ratioP1;P1;durP2;ratioP2;P2;SDS_P1;SDS_P2;PMS_P1;PMS_P2;Temp;Humidity;BMP_temperature;BMP_pressure;BME280_temperature;BME280_humidity;BME280_pressure;Samples;Min_cycle;Max_cycle;Signal;HPM_P1;HPM_P2
2023/08/08 00:01:44;;;;;;;2.95;0.40;;;;;;;16.91;58.86;100343.97;10512555;28;20104;-70
2023/08/08 00:06:45;;;;;;;1.25;0.50;;;;;;;16.80;59.03;100346.28;10511619;28;20076;-71
2023/08/08 00:11:47;;;;;;;1.17;0.70;;;;;;;16.71;59.58;100339.47;10510624;28;20089;-72
2023/08/08 00:16:48;;;;;;;1.13;0.30;;;;;;;16.60;59.89;100345.56;10511544;28;20115;-70
2023/08/08 00:21:49;;;;;;;2.85;0.57;;;;;;;16.53;60.13;100352.88;10511456;28;20067;-71
2023/08/08 00:26:51;;;;;;;1.63;0.50;;;;;;;16.47;60.25;100351.88;10509421;28;20099;-70
2023/08/08 00:31:52;;;;;;;2.35;0.52;;;;;;;16.44;60.56;100355.84;10508933;28;20044;-72
2023/08/08 00:36:54;;;;;;;1.55;0.35;;;;;;;16.39;60.74;100347.53;10510449;28;20060;-70
2023/08/08 00:41:55;;;;;;;2.00;0.63;;;;;;;16.35;60.79;100340.88;10512656;28;20048;-70
2023/08/08 00:46:57;;;;;;;3.63;0.60;;;;;;;16.30;61.21;100337.94;10509584;28;20121;-71
2023/08/08 00:51:59;;;;;;;2.72;0.50;;;;;;;16.30;61.30;100347.97;10505991;28;20103;-71
2023/08/08 00:57:01;;;;;;;1.73;0.50;;;;;;;16.30;61.34;100334.41;10509006;28;20070;-71
2023/08/08 01:02:03;;;;;;;1.00;0.45;;;;;;;16.24;61.75;100322.53;10508318;28;20045;-70
2023/08/08 01:07:45;;;;;;;2.03;0.50;;;;;;;16.17;61.88;100310.88;10505727;28;20032;-72
2023/08/08 01:13:04;;;;;;;2.70;0.50;;;;;;;16.09;61.98;100319.25;10484560;28;20060;-72
2023/08/08 01:18:07;;;;;;;1.20;0.50;;;;;;;16.05;62.40;100311.56;10507275;28;20079;-71
2023/08/08 01:23:16;;;;;;;1.00;0.40;;;;;;;15.95;62.81;100313.03;10508255;28;20047;-72
2023/08/08 01:28:22;;;;;;;1.48;0.43;;;;;;;15.91;63.10;100312.59;10499509;28;20067;-71
2023/08/08 01:33:23;;;;;;;0.70;0.50;;;;;;;15.85;62.97;100308.03;10505585;28;20055;-71
2023/08/08 01:38:38;;;;;;;1.10;0.70;;;;;;;15.76;63.28;100301.19;10503485;28;20040;-72
2023/08/08 01:43:40;;;;;;;2.03;0.45;;;;;;;15.69;63.41;100300.31;10506300;28;20059;-71
2023/08/08 01:48:45;;;;;;;2.75;0.50;;;;;;;15.62;63.31;100303.03;10501996;28;20055;-71
2023/08/08 01:53:47;;;;;;;1.00;0.47;;;;;;;15.53;63.54;100296.19;10506624;28;20072;-71
2023/08/08 01:58:48;;;;;;;8.02;1.55;;;;;;;15.38;63.79;100299.94;10503151;28;20037;-70
2023/08/08 02:03:50;;;;;;;2.85;0.57;;;;;;;15.28;64.01;100294.09;10507347;28;20063;-71
2023/08/08 02:08:51;;;;;;;1.45;0.60;;;;;;;15.19;64.44;100298.06;10505556;28;20040;-71
2023/08/08 02:13:53;;;;;;;2.97;0.75;;;;;;;15.07;64.44;100295.13;10506090;28;20056;-70
2023/08/08 02:18:54;;;;;;;3.40;0.63;;;;;;;14.98;64.43;100293.66;10506324;28;20040;-70
2023/08/08 02:23:56;;;;;;;2.75;0.70;;;;;;;14.91;64.58;100279.28;10505587;28;20129;-72
2023/08/08 02:28:57;;;;;;;1.10;0.77;;;;;;;14.83;64.81;100288.41;10504747;28;20096;-70
2023/08/08 02:33:58;;;;;;;2.03;0.80;;;;;;;14.76;65.03;100280.31;10497573;28;20044;-71
2023/08/08 02:39:00;;;;;;;0.95;0.65;;;;;;;14.68;65.06;100285.91;10503525;28;20048;-70
2023/08/08 02:44:02;;;;;;;4.30;0.70;;;;;;;14.60;65.47;100281.50;10500631;28;20066;-71
2023/08/08 02:49:04;;;;;;;2.67;0.65;;;;;;;14.56;65.52;100284.81;10504598;28;20396;-70
2023/08/08 02:54:06;;;;;;;1.73;0.70;;;;;;;14.48;65.67;100281.25;10502558;28;20531;-70
2023/08/08 02:59:07;;;;;;;0.90;0.70;;;;;;;14.44;66.09;100293.50;10504742;28;20115;-71
2023/08/08 03:04:08;;;;;;;1.95;0.70;;;;;;;14.44;66.50;100298.91;10501441;28;20052;-69
2023/08/08 03:09:10;;;;;;;1.83;0.73;;;;;;;14.54;66.48;100295.00;10502378;28;20075;-70
2023/08/08 03:14:11;;;;;;;1.55;0.75;;;;;;;14.59;66.51;100298.81;10504640;28;20048;-70
2023/08/08 03:19:13;;;;;;;1.73;0.73;;;;;;;14.67;66.69;100292.34;10502326;28;20067;-71
2023/08/08 03:24:14;;;;;;;1.33;0.60;;;;;;;14.72;66.79;100286.34;10502924;28;20048;-70
2023/08/08 03:29:16;;;;;;;2.25;0.60;;;;;;;14.79;66.88;100292.56;10502583;28;20075;-70
2023/08/08 03:34:17;;;;;;;3.53;0.70;;;;;;;14.83;66.86;100285.72;10503200;28;20037;-70
2023/08/08 03:39:19;;;;;;;4.80;0.70;;;;;;;14.91;66.85;100281.97;10502611;28;20119;-71
2023/08/08 03:44:20;;;;;;;3.47;0.70;;;;;;;14.86;67.15;100282.59;10502263;28;20109;-70
2023/08/08 03:49:21;;;;;;;0.95;0.60;;;;;;;14.88;66.80;100275.13;10501613;28;20344;-70
2023/08/08 03:54:23;;;;;;;3.50;0.65;;;;;;;14.91;66.77;100276.56;10505908;28;20060;-70
2023/08/08 03:59:24;;;;;;;1.65;0.70;;;;;;;14.90;67.00;100270.34;10499555;28;20049;-70
2023/08/08 04:04:26;;;;;;;0.80;0.50;;;;;;;14.87;67.21;100273.47;10504421;28;20074;-69
2023/08/08 04:09:27;;;;;;;1.38;0.85;;;;;;;14.87;67.07;100277.00;10499741;28;20104;-69
2023/08/08 04:14:29;;;;;;;2.13;0.68;;;;;;;14.90;67.18;100273.03;10501949;28;20067;-69
2023/08/08 04:19:30;;;;;;;1.70;0.80;;;;;;;15.01;66.89;100264.31;10501336;28;20041;-69
2023/08/08 04:24:31;;;;;;;2.78;1.02;;;;;;;15.02;66.82;100274.09;10503761;28;20044;-69
2023/08/08 04:29:33;;;;;;;6.07;1.02;;;;;;;14.99;66.99;100281.81;10502134;28;20298;-69
2023/08/08 04:34:34;;;;;;;1.65;1.17;;;;;;;15.05;66.77;100279.09;10505549;28;20048;-70
2023/08/08 04:39:36;;;;;;;3.17;0.77;;;;;;;15.07;66.90;100284.31;10508094;28;20119;-69
2023/08/08 04:44:37;;;;;;;1.50;0.80;;;;;;;15.00;67.34;100278.03;10510250;28;20046;-69
2023/08/08 04:49:38;;;;;;;2.50;0.93;;;;;;;15.01;67.55;100268.91;10509568;28;20067;-68
2023/08/08 04:54:40;;;;;;;1.17;0.82;;;;;;;15.01;67.67;100271.59;10511155;28;20044;-69
2023/08/08 04:59:42;;;;;;;3.20;0.93;;;;;;;15.05;67.78;100278.28;10505070;28;20049;-69
2023/08/08 05:04:44;;;;;;;2.03;0.95;;;;;;;15.03;67.85;100264.09;10508058;28;20245;-69
2023/08/08 05:09:45;;;;;;;1.27;1.00;;;;;;;15.07;67.74;100262.66;10508549;28;20381;-69
2023/08/08 05:14:47;;;;;;;0.98;0.75;;;;;;;15.12;67.81;100270.97;10508759;28;20273;-71
2023/08/08 05:19:48;;;;;;;3.53;1.20;;;;;;;15.19;67.48;100269.09;10508528;28;20040;-69
2023/08/08 05:24:49;;;;;;;3.30;1.00;;;;;;;15.17;67.55;100267.66;10508776;28;20111;-69
2023/08/08 05:29:51;;;;;;;1.45;0.90;;;;;;;15.20;67.62;100257.22;10505814;28;20124;-68
2023/08/08 05:34:52;;;;;;;1.27;0.93;;;;;;;15.18;67.80;100248.47;10505113;28;20048;-69
2023/08/08 05:39:54;;;;;;;2.28;0.80;;;;;;;15.25;67.75;100259.31;10505662;28;20076;-69
2023/08/08 05:44:55;;;;;;;4.53;1.08;;;;;;;15.34;67.56;100255.34;10507226;28;20062;-69
2023/08/08 05:49:57;;;;;;;1.50;0.82;;;;;;;15.46;67.66;100263.66;10516358;28;20119;-69
2023/08/08 05:55:01;;;;;;;1.33;0.90;;;;;;;15.57;67.42;100263.03;10509560;28;20070;-69
2023/08/08 06:00:03;;;;;;;3.20;0.90;;;;;;;15.69;67.43;100265.91;10503079;28;20089;-70
2023/08/08 06:05:05;;;;;;;1.95;0.80;;;;;;;15.86;67.06;100266.34;10505851;28;20622;-69
2023/08/08 06:10:08;;;;;;;3.55;0.77;;;;;;;15.93;66.97;100264.44;10506402;28;20058;-70
2023/08/08 06:15:09;;;;;;;2.75;0.57;;;;;;;16.10;66.43;100269.41;10507204;28;20053;-69
2023/08/08 06:20:11;;;;;;;2.05;0.68;;;;;;;16.30;66.47;100272.03;10505698;28;20051;-69
2023/08/08 06:25:13;;;;;;;4.53;0.80;;;;;;;16.35;66.28;100264.91;10503979;28;20045;-68
2023/08/08 06:30:14;;;;;;;1.98;0.70;;;;;;;16.49;65.81;100253.97;10506137;28;20097;-69
2023/08/08 06:35:16;;;;;;;1.75;0.70;;;;;;;16.66;65.70;100255.13;10503676;28;20247;-70
2023/08/08 06:40:18;;;;;;;0.52;0.40;;;;;;;16.80;65.37;100245.81;10501154;28;20341;-69
2023/08/08 06:45:19;;;;;;;1.67;0.65;;;;;;;16.99;65.09;100245.94;10503861;28;20118;-69
2023/08/08 06:50:21;;;;;;;4.25;0.80;;;;;;;17.10;64.90;100242.53;10502445;28;20068;-69
2023/08/08 06:55:22;;;;;;;2.55;0.50;;;;;;;17.24;64.45;100240.53;10503343;28;20294;-68
2023/08/08 07:00:24;;;;;;;1.77;0.60;;;;;;;17.47;63.96;100245.31;10499660;28;20060;-69
2023/08/08 07:05:25;;;;;;;0.88;0.50;;;;;;;17.66;63.62;100253.50;10504781;28;20124;-69
2023/08/08 07:10:27;;;;;;;2.75;0.50;;;;;;;17.74;63.31;100247.78;10504410;28;20067;-69
2023/08/08 07:15:30;;;;;;;3.20;0.52;;;;;;;18.03;62.70;100241.59;10501062;28;20051;-69
2023/08/08 07:20:31;;;;;;;0.93;0.40;;;;;;;18.08;62.21;100240.09;10503696;28;20116;-69
2023/08/08 07:25:34;;;;;;;1.10;0.30;;;;;;;18.14;61.69;100234.56;10501155;28;20056;-70
2023/08/08 07:30:35;;;;;;;1.40;0.40;;;;;;;18.17;61.10;100230.56;10503870;28;20107;-69
2023/08/08 07:35:37;;;;;;;3.13;0.57;;;;;;;18.22;60.75;100233.41;10498803;28;20060;-70
2023/08/08 07:40:40;;;;;;;0.75;0.40;;;;;;;18.35;60.23;100230.53;10504154;28;20111;-69
2023/08/08 07:45:42;;;;;;;0.50;0.30;;;;;;;18.46;59.54;100220.72;10501702;28;20064;-70
2023/08/08 07:50:44;;;;;;;1.20;0.20;;;;;;;18.65;58.84;100218.78;10502811;28;20115;-69
2023/08/08 07:55:45;;;;;;;1.00;0.60;;;;;;;18.83;58.20;100212.47;10505026;28;20252;-69
2023/08/08 08:00:46;;;;;;;1.30;0.40;;;;;;;19.06;57.48;100213.56;10504126;28;20115;-70
2023/08/08 08:05:48;;;;;;;2.03;0.30;;;;;;;19.10;56.66;100204.69;10506710;28;20044;-69
2023/08/08 08:10:50;;;;;;;1.38;0.20;;;;;;;19.28;55.83;100208.38;10511876;28;20387;-69
2023/08/08 08:15:52;;;;;;;1.38;0.30;;;;;;;19.55;55.04;100217.72;10511667;28;20041;-69
2023/08/08 08:20:53;;;;;;;0.38;0.20;;;;;;;19.80;54.14;100205.72;10510234;28;20048;-68
2023/08/08 08:25:55;;;;;;;2.00;0.30;;;;;;;19.89;52.92;100209.75;10509658;28;20052;-69
2023/08/08 08:30:57;;;;;;;1.90;0.20;;;;;;;20.13;52.64;100199.59;10507478;28;20620;-69
2023/08/08 08:35:58;;;;;;;4.72;0.60;;;;;;;20.45;51.87;100193.63;10515118;28;20070;-69
2023/08/08 08:41:02;;;;;;;3.88;0.40;;;;;;;20.69;50.91;100193.53;10517291;28;20048;-69
2023/08/08 08:46:03;;;;;;;0.75;0.30;;;;;;;20.70;50.43;100193.28;10504421;28;20242;-70
2023/08/08 08:51:05;;;;;;;0.95;0.20;;;;;;;20.94;49.73;100195.88;10507746;28;20052;-70
2023/08/08 08:56:08;;;;;;;2.35;0.30;;;;;;;20.72;49.46;100203.97;10508670;28;20107;-68
2023/08/08 09:01:10;;;;;;;0.82;0.30;;;;;;;20.97;49.12;100198.09;10505244;28;20053;-69
2023/08/08 09:06:12;;;;;;;1.13;0.40;;;;;;;20.84;48.89;100198.44;10507435;28;20045;-69
2023/08/08 09:11:13;;;;;;;2.60;0.30;;;;;;;21.03;48.90;100197.13;10508562;28;20103;-70
2023/08/08 09:16:15;;;;;;;0.98;0.30;;;;;;;21.17;48.97;100197.59;10507145;28;20093;-69
2023/08/08 09:21:18;;;;;;;1.15;0.30;;;;;;;21.30;48.57;100194.50;10507934;28;20051;-69
2023/08/08 09:26:20;;;;;;;0.85;0.20;;;;;;;21.53;48.29;100196.22;10507081;28;20060;-69
2023/08/08 09:31:24;;;;;;;2.85;0.30;;;;;;;21.50;48.12;100191.25;10506201;28;20226;-69
2023/08/08 09:36:25;;;;;;;0.73;0.20;;;;;;;21.31;47.60;100189.88;10507666;28;20405;-69
2023/08/08 09:41:27;;;;;;;1.88;0.38;;;;;;;21.25;47.24;100188.13;10506244;28;20049;-69
2023/08/08 09:46:30;;;;;;;1.73;0.30;;;;;;;21.42;47.42;100179.91;10506947;28;20262;-69
2023/08/08 09:51:33;;;;;;;1.42;0.30;;;;;;;21.59;47.29;100187.00;10505155;28;20051;-71
2023/08/08 09:56:36;;;;;;;2.10;0.30;;;;;;;21.75;46.66;100173.53;10505418;28;20052;-69
2023/08/08 10:01:40;;;;;;;2.05;0.30;;;;;;;21.69;45.37;100177.28;10505972;28;20080;-71
2023/08/08 10:06:41;;;;;;;1.10;0.52;;;;;;;21.79;45.97;100166.47;10507020;28;20345;-69
2023/08/08 10:11:44;;;;;;;1.17;0.30;;;;;;;21.91;45.46;100180.84;10507373;28;20067;-69
2023/08/08 10:16:48;;;;;;;1.40;0.20;;;;;;;22.08;45.63;100167.09;10505702;28;20120;-69
2023/08/08 10:21:58;;;;;;;0.50;0.30;;;;;;;22.42;44.62;100177.88;10506733;28;20055;-68
2023/08/08 10:27:04;;;;;;;2.45;0.28;;;;;;;22.34;43.23;100183.81;10505796;28;20337;-69
2023/08/08 10:32:07;;;;;;;1.65;0.20;;;;;;;22.50;42.34;100176.59;10511824;28;20277;-70
2023/08/08 10:37:11;;;;;;;1.08;0.32;;;;;;;22.63;41.51;100180.78;10503847;28;20115;-68
2023/08/08 10:42:18;;;;;;;0.95;0.20;;;;;;;22.57;40.42;100172.56;10506443;28;20040;-69
2023/08/08 10:47:23;;;;;;;2.03;0.30;;;;;;;22.56;39.79;100178.28;10504401;28;20051;-69
2023/08/08 10:52:26;;;;;;;3.13;0.32;;;;;;;22.44;39.60;100174.88;10501968;28;20048;-69
2023/08/08 10:57:27;;;;;;;1.48;0.30;;;;;;;22.40;39.66;100174.56;10502789;28;20256;-69
2023/08/08 11:02:31;;;;;;;0.93;0.28;;;;;;;22.53;39.36;100174.16;10501088;28;20060;-69
2023/08/08 11:07:35;;;;;;;0.93;0.20;;;;;;;22.52;39.34;100177.97;10502622;28;20048;-70
2023/08/08 11:12:36;;;;;;;1.58;0.40;;;;;;;22.56;39.40;100186.50;10504284;28;20064;-70
2023/08/08 11:17:38;;;;;;;0.68;0.30;;;;;;;22.57;39.51;100177.19;10504144;28;20133;-72
2023/08/08 11:22:39;;;;;;;0.38;0.20;;;;;;;22.45;39.88;100193.78;10503683;28;20044;-71
2023/08/08 11:27:49;;;;;;;1.10;0.63;;;;;;;22.32;39.38;100184.06;10509252;28;20048;-69
2023/08/08 11:32:50;;;;;;;1.45;0.28;;;;;;;22.55;38.50;100174.72;10501679;28;20063;-70
2023/08/08 11:37:57;;;;;;;3.60;0.75;;;;;;;22.65;38.01;100176.72;10503639;28;20373;-70
2023/08/08 11:42:58;;;;;;;1.95;0.30;;;;;;;22.92;37.29;100181.31;10511648;28;20108;-70
2023/08/08 11:48:01;;;;;;;1.98;0.30;;;;;;;22.94;36.73;100185.44;10511980;28;20044;-70
2023/08/08 11:53:02;;;;;;;1.30;0.30;;;;;;;23.10;36.76;100191.09;10509839;28;20174;-69
2023/08/08 11:58:05;;;;;;;0.30;0.20;;;;;;;23.35;36.67;100177.53;10508773;28;20032;-70
2023/08/08 12:03:07;;;;;;;1.02;0.20;;;;;;;23.47;36.59;100171.84;10509155;28;20044;-69
2023/08/08 12:08:10;;;;;;;0.77;0.20;;;;;;;23.40;36.98;100181.41;10508968;28;20151;-69
2023/08/08 12:13:11;;;;;;;2.67;0.75;;;;;;;23.25;36.42;100177.47;10511025;28;20059;-69
2023/08/08 12:18:17;;;;;;;1.48;0.20;;;;;;;23.31;36.61;100162.69;10510818;28;20055;-70
2023/08/08 12:23:19;;;;;;;2.30;0.30;;;;;;;23.53;36.58;100175.44;10511089;28;20128;-71
2023/08/08 12:28:20;;;;;;;1.55;0.30;;;;;;;23.68;36.85;100169.22;10516803;28;20066;-69
2023/08/08 12:33:21;;;;;;;1.10;0.20;;;;;;;23.42;36.78;100174.59;10510496;28;20044;-70
2023/08/08 12:38:23;;;;;;;0.95;0.30;;;;;;;23.48;36.49;100165.28;10509108;28;20257;-71
2023/08/08 12:43:24;;;;;;;1.70;0.20;;;;;;;23.84;36.24;100187.44;10506570;28;20064;-70
2023/08/08 12:48:26;;;;;;;1.00;0.30;;;;;;;23.72;36.20;100168.41;10510550;28;20275;-69
2023/08/08 12:53:27;;;;;;;1.38;0.50;;;;;;;23.75;35.61;100165.09;10508385;28;20611;-69
2023/08/08 12:58:29;;;;;;;1.70;0.40;;;;;;;23.84;35.86;100162.72;10506937;28;20367;-70
2023/08/08 13:03:33;;;;;;;2.17;0.20;;;;;;;23.98;35.71;100165.78;10506723;28;20048;-71
2023/08/08 13:08:35;;;;;;;4.30;0.30;;;;;;;23.71;35.78;100150.28;10490771;28;20140;-70
2023/08/08 13:13:36;;;;;;;0.73;0.20;;;;;;;23.37;36.55;100163.56;10507616;28;20059;-70
2023/08/08 13:18:38;;;;;;;2.78;0.30;;;;;;;23.10;36.23;100149.94;10514437;28;20079;-70
2023/08/08 13:23:41;;;;;;;2.35;0.30;;;;;;;22.94;36.62;100143.50;10507135;28;20312;-70
2023/08/08 13:28:43;;;;;;;0.60;0.20;;;;;;;22.72;36.78;100140.88;10506801;28;20060;-71
2023/08/08 13:33:44;;;;;;;2.90;0.20;;;;;;;22.75;37.33;100148.59;10504425;28;20050;-69
2023/08/08 13:38:45;;;;;;;0.88;0.45;;;;;;;22.74;36.96;100153.22;10507009;28;20111;-70
2023/08/08 13:43:47;;;;;;;0.85;0.25;;;;;;;22.72;37.58;100149.09;10511459;28;20041;-70
2023/08/08 13:48:48;;;;;;;0.70;0.40;;;;;;;23.17;37.62;100140.41;10509567;28;20108;-72
2023/08/08 13:53:50;;;;;;;3.05;0.30;;;;;;;23.32;36.83;100131.47;10505536;28;20072;-71
2023/08/08 13:58:51;;;;;;;1.60;0.20;;;;;;;23.50;36.81;100137.56;10497728;28;20048;-73
2023/08/08 14:03:53;;;;;;;2.05;0.20;;;;;;;23.43;36.79;100121.34;10501001;28;20048;-72
2023/08/08 14:08:54;;;;;;;1.00;0.30;;;;;;;23.48;36.76;100118.63;10507128;28;20043;-72
2023/08/08 14:13:56;;;;;;;2.15;0.20;;;;;;;23.34;37.21;100122.94;10504604;28;20226;-73
2023/08/08 14:18:57;;;;;;;0.90;0.20;;;;;;;23.09;37.49;100134.59;10509153;28;20482;-74
2023/08/08 14:24:00;;;;;;;0.40;0.20;;;;;;;22.80;38.22;100129.44;10505002;28;20048;-72
2023/08/08 14:29:01;;;;;;;2.15;0.30;;;;;;;22.50;38.29;100135.50;10505165;28;20036;-72
2023/08/08 14:34:03;;;;;;;1.05;0.20;;;;;;;22.40;38.47;100128.00;10504285;28;20083;-72
2023/08/08 14:39:04;;;;;;;1.42;0.22;;;;;;;22.44;38.70;100120.91;10502086;28;20111;-72
2023/08/08 14:44:05;;;;;;;0.80;0.20;;;;;;;22.57;39.00;100125.13;10504173;28;20351;-74
2023/08/08 14:49:07;;;;;;;1.40;0.20;;;;;;;22.60;38.96;100119.13;10504290;28;20495;-71
2023/08/08 14:54:09;;;;;;;1.40;0.30;;;;;;;22.60;39.15;100124.63;10495305;28;20116;-73
2023/08/08 14:59:10;;;;;;;2.50;0.20;;;;;;;22.58;39.15;100126.78;10502076;28;20040;-74
2023/08/08 15:04:12;;;;;;;1.50;0.22;;;;;;;22.43;39.46;100130.22;10503250;28;20103;-72
2023/08/08 15:09:13;;;;;;;0.90;0.20;;;;;;;22.51;39.55;100134.38;10500880;28;20029;-72
2023/08/08 15:14:15;;;;;;;0.68;0.20;;;;;;;22.31;39.78;100138.59;10507749;28;20032;-71
2023/08/08 15:19:19;;;;;;;3.05;0.28;;;;;;;22.28;39.79;100132.84;10500060;28;20481;-73
2023/08/08 15:24:20;;;;;;;0.93;0.15;;;;;;;22.20;40.25;100144.22;10498000;28;20115;-74
2023/08/08 15:29:22;;;;;;;0.73;0.30;;;;;;;22.38;39.93;100139.22;10503405;28;20398;-72
2023/08/08 15:34:26;;;;;;;4.97;0.63;;;;;;;22.43;40.09;100140.34;10502512;28;20146;-73
2023/08/08 15:39:27;;;;;;;0.50;0.20;;;;;;;22.36;40.29;100138.66;10499165;28;20036;-71
2023/08/08 15:44:28;;;;;;;3.25;0.28;;;;;;;22.36;40.74;100149.59;10503232;28;20319;-72
2023/08/08 15:49:30;;;;;;;2.83;0.20;;;;;;;22.34;40.94;100149.03;10502499;28;20104;-73
2023/08/08 15:54:32;;;;;;;2.42;0.30;;;;;;;22.36;41.08;100151.53;10491463;28;20068;-73
2023/08/08 15:59:33;;;;;;;0.93;0.10;;;;;;;22.34;41.41;100160.00;10502060;28;20047;-73
2023/08/08 16:04:35;;;;;;;0.85;0.20;;;;;;;22.40;41.93;100149.09;10500371;28;20064;-73
2023/08/08 16:09:36;;;;;;;0.95;0.22;;;;;;;22.51;42.11;100143.47;10503507;28;20283;-72
2023/08/08 16:14:38;;;;;;;1.80;0.38;;;;;;;22.45;42.21;100149.13;10506891;28;20079;-73
2023/08/08 16:19:39;;;;;;;4.40;0.32;;;;;;;22.34;42.97;100150.97;10502117;28;20056;-72
2023/08/08 16:24:41;;;;;;;2.80;0.20;;;;;;;22.12;42.84;100157.28;10502239;28;20060;-72
2023/08/08 16:29:42;;;;;;;2.70;0.52;;;;;;;22.04;43.46;100154.16;10513619;28;20388;-71
2023/08/08 16:34:45;;;;;;;1.73;0.22;;;;;;;22.01;43.56;100154.69;10510380;28;20107;-73
2023/08/08 16:39:47;;;;;;;3.75;0.32;;;;;;;21.90;43.95;100165.53;10493570;28;20047;-72
2023/08/08 16:44:48;;;;;;;2.22;0.50;;;;;;;21.79;44.53;100150.88;10509084;28;20404;-71
2023/08/08 16:49:50;;;;;;;2.10;0.30;;;;;;;21.96;44.26;100152.72;10508642;28;20095;-71
2023/08/08 16:54:51;;;;;;;2.03;0.70;;;;;;;21.85;44.30;100157.25;10506965;28;20107;-71
2023/08/08 16:59:55;;;;;;;2.55;0.30;;;;;;;21.86;44.83;100155.31;10504408;28;20250;-74
2023/08/08 17:04:56;;;;;;;1.33;0.30;;;;;;;21.96;44.91;100136.31;10505815;28;20051;-73
2023/08/08 17:09:58;;;;;;;0.60;0.20;;;;;;;22.04;44.73;100141.31;10505003;28;20040;-72
2023/08/08 17:15:00;;;;;;;2.17;0.30;;;;;;;22.01;45.06;100147.28;10506006;28;20041;-71
2023/08/08 17:20:04;;;;;;;1.45;0.32;;;;;;;22.05;44.85;100156.63;10508239;28;20141;-73
2023/08/08 17:25:06;;;;;;;1.10;0.20;;;;;;;22.01;45.34;100158.25;10514312;28;20061;-72
2023/08/08 17:30:10;;;;;;;4.13;0.57;;;;;;;22.12;45.32;100153.72;10507263;28;20339;-72
2023/08/08 17:35:12;;;;;;;2.00;0.30;;;;;;;22.10;45.55;100150.41;10507753;28;20070;-72
2023/08/08 17:40:14;;;;;;;0.90;0.45;;;;;;;22.05;46.05;100151.16;10507381;28;20086;-72
2023/08/08 17:45:15;;;;;;;1.73;0.30;;;;;;;21.92;46.06;100152.41;10507727;28;20289;-71
2023/08/08 17:50:16;;;;;;;1.02;0.30;;;;;;;21.80;46.51;100162.66;10506450;28;20032;-73
2023/08/08 17:55:18;;;;;;;0.73;0.30;;;;;;;21.73;46.76;100160.09;10504991;28;20075;-71
2023/08/08 18:00:19;;;;;;;0.75;0.28;;;;;;;21.63;47.21;100156.44;10504938;28;20064;-72
2023/08/08 18:05:21;;;;;;;2.08;0.25;;;;;;;21.71;47.10;100156.78;10506226;28;20111;-71
2023/08/08 18:10:22;;;;;;;1.55;0.30;;;;;;;21.76;47.02;100154.13;10505107;28;20576;-73
2023/08/08 18:15:24;;;;;;;2.80;0.30;;;;;;;21.54;47.59;100145.09;10507723;28;20123;-74
2023/08/08 18:20:25;;;;;;;2.78;0.22;;;;;;;21.50;47.24;100138.47;10513347;28;20653;-72
2023/08/08 18:25:27;;;;;;;2.28;0.30;;;;;;;21.52;47.44;100139.03;10502417;28;20111;-71
2023/08/08 18:30:28;;;;;;;1.33;0.22;;;;;;;21.47;47.48;100142.53;10505749;28;20513;-71
2023/08/08 18:35:29;;;;;;;3.03;0.43;;;;;;;21.60;47.36;100135.84;10507581;28;20461;-72
2023/08/08 18:40:31;;;;;;;3.47;0.30;;;;;;;21.62;47.36;100141.09;10504410;28;20409;-72
2023/08/08 18:45:32;;;;;;;2.28;0.60;;;;;;;21.57;47.56;100139.13;10501733;28;20349;-74
2023/08/08 18:50:34;;;;;;;2.75;0.32;;;;;;;21.42;47.63;100123.28;10502341;28;20044;-72
2023/08/08 18:55:35;;;;;;;6.18;1.20;;;;;;;21.37;48.00;100147.84;10502482;28;20111;-71
2023/08/08 19:00:37;;;;;;;2.65;0.40;;;;;;;21.17;48.86;100137.47;10503208;28;20076;-74
2023/08/08 19:05:38;;;;;;;4.40;0.40;;;;;;;21.13;48.79;100150.81;10505387;28;20067;-74
2023/08/08 19:10:40;;;;;;;1.45;0.55;;;;;;;21.00;48.91;100164.81;10505086;28;20089;-74
2023/08/08 19:15:41;;;;;;;1.17;0.32;;;;;;;20.93;48.92;100158.66;10503516;28;20360;-73
2023/08/08 19:20:45;;;;;;;3.05;0.38;;;;;;;20.78;49.57;100159.28;10503289;28;20041;-74
2023/08/08 19:25:46;;;;;;;2.65;0.47;;;;;;;20.75;49.40;100152.41;10500542;28;20040;-75
2023/08/08 19:30:47;;;;;;;2.83;0.43;;;;;;;20.70;49.86;100135.09;10503527;28;20045;-74
2023/08/08 19:35:49;;;;;;;5.18;0.60;;;;;;;20.68;49.76;100145.44;10502551;28;20279;-73
2023/08/08 19:40:50;;;;;;;1.17;0.40;;;;;;;20.46;50.54;100153.47;10503488;28;20078;-74
2023/08/08 19:45:53;;;;;;;3.55;0.50;;;;;;;20.33;51.16;100152.72;10505164;28;20049;-73
2023/08/08 19:50:54;;;;;;;3.30;0.65;;;;;;;20.31;51.19;100132.22;10504609;28;20214;-73
2023/08/08 19:55:57;;;;;;;3.05;0.50;;;;;;;20.21;51.49;100144.59;10503819;28;20319;-75
2023/08/08 20:00:59;;;;;;;4.47;0.50;;;;;;;20.12;51.66;100146.09;10504544;28;20071;-74
2023/08/08 20:06:01;;;;;;;1.48;0.38;;;;;;;20.13;51.71;100150.44;10511650;28;20055;-74
2023/08/08 20:11:05;;;;;;;1.58;0.40;;;;;;;20.06;52.08;100152.50;10510937;28;20036;-73
2023/08/08 20:16:06;;;;;;;0.80;0.40;;;;;;;20.13;51.67;100147.72;10509093;28;20064;-72
2023/08/08 20:21:08;;;;;;;2.35;0.45;;;;;;;20.12;51.80;100135.16;10512096;28;20238;-74
2023/08/08 20:26:09;;;;;;;0.95;0.50;;;;;;;20.12;51.92;100131.59;10509665;28;20075;-72
2023/08/08 20:31:11;;;;;;;2.25;0.47;;;;;;;20.06;51.99;100133.38;10508770;28;20294;-73
2023/08/08 20:36:13;;;;;;;1.10;0.50;;;;;;;20.04;52.21;100129.25;10510227;28;20421;-73
2023/08/08 20:41:15;;;;;;;1.83;0.60;;;;;;;19.98;52.50;100139.25;10506689;28;20274;-75
2023/08/08 20:46:16;;;;;;;2.35;0.75;;;;;;;19.98;52.91;100125.59;10509128;28;20341;-73
2023/08/08 20:51:18;;;;;;;2.78;0.40;;;;;;;19.92;53.04;100149.22;10509756;28;20227;-73
2023/08/08 20:56:20;;;;;;;4.32;0.50;;;;;;;19.90;52.78;100143.19;10508003;28;20044;-74
2023/08/08 21:01:21;;;;;;;4.55;0.57;;;;;;;19.89;53.06;100140.72;10510161;28;20625;-72
2023/08/08 21:06:23;;;;;;;1.02;0.50;;;;;;;19.89;53.28;100138.00;10508958;28;20049;-71
2023/08/08 21:11:24;;;;;;;2.72;0.65;;;;;;;19.92;53.02;100134.75;10509721;28;20063;-73
2023/08/08 21:16:25;;;;;;;2.20;0.40;;;;;;;19.92;53.26;100141.03;10508578;28;20068;-73
2023/08/08 21:21:27;;;;;;;1.58;0.40;;;;;;;19.90;53.19;100139.63;10509821;28;20044;-70
2023/08/08 21:26:28;;;;;;;1.77;0.30;;;;;;;19.75;53.70;100129.25;10507748;28;20293;-74
2023/08/08 21:31:40;;;;;;;2.97;0.40;;;;;;;19.67;54.00;100124.13;10507854;28;20056;-73
2023/08/08 21:36:41;;;;;;;2.80;0.82;;;;;;;19.68;53.74;100131.25;10507087;28;20373;-75
2023/08/08 21:41:42;;;;;;;2.00;0.32;;;;;;;19.45;54.49;100124.81;10509001;28;20063;-72
2023/08/08 21:46:44;;;;;;;3.42;0.40;;;;;;;19.36;54.71;100123.50;10506217;28;20117;-72
2023/08/08 21:51:45;;;;;;;2.22;0.30;;;;;;;18.99;56.17;100121.88;10505964;28;20049;-76
2023/08/08 21:56:47;;;;;;;4.63;1.13;;;;;;;18.73;57.19;100127.75;10506886;28;20063;-71
2023/08/08 22:01:49;;;;;;;2.50;0.40;;;;;;;18.18;58.98;100131.53;10508258;28;20108;-71
2023/08/08 22:06:50;;;;;;;0.82;0.30;;;;;;;18.08;59.76;100137.53;10504566;28;20048;-72
2023/08/08 22:11:53;;;;;;;3.65;0.88;;;;;;;17.94;60.50;100134.16;10507005;28;20052;-72
2023/08/08 22:16:54;;;;;;;1.30;0.40;;;;;;;17.76;61.58;100124.13;10505606;28;20111;-74
2023/08/08 22:21:56;;;;;;;1.75;0.40;;;;;;;17.50;62.92;100103.56;10506645;28;20419;-74
2023/08/08 22:26:57;;;;;;;1.65;0.57;;;;;;;17.35;63.61;100111.25;10506844;28;20225;-77
2023/08/08 22:31:59;;;;;;;2.60;0.60;;;;;;;17.29;64.46;100117.59;10506345;28;20075;-75
2023/08/08 22:37:00;;;;;;;2.72;1.00;;;;;;;17.28;64.64;100113.19;10503312;28;20103;-75
2023/08/08 22:42:04;;;;;;;2.20;0.90;;;;;;;17.33;64.80;100124.22;10504893;28;20124;-76
2023/08/08 22:47:05;;;;;;;5.63;0.82;;;;;;;17.16;65.98;100116.69;10504809;28;20066;-77
2023/08/08 22:52:07;;;;;;;2.70;1.10;;;;;;;17.20;66.32;100104.31;10506345;28;20067;-78
2023/08/08 22:57:09;;;;;;;6.20;2.17;;;;;;;17.18;66.60;100100.13;10505372;28;20111;-76
2023/08/08 23:02:11;;;;;;;4.38;0.90;;;;;;;16.87;68.25;100082.09;10501945;28;20048;-77
2023/08/08 23:07:12;;;;;;;2.80;1.38;;;;;;;16.77;69.18;100090.72;10505680;28;20076;-78